Time,TemperatureF,DewpointF,PressureIn,WindDirection,WindDirectionDegrees,WindSpeedMPH,WindSpeedGustMPH,Humidity,HourlyPrecipIn,Conditions,Clouds,dailyrainin,SoftwareType,DateUTC
2013-03-09 00:00:00,26.8,22.3,30.43,SE,141,0.0,0.0,83,0.00,,,0.00,Wunderground v.1.15,2013-03-09 05:00:00,
2013-03-09 00:05:00,26.6,22.1,30.43,SE,141,0.0,0.0,83,0.00,,,0.00,Wunderground v.1.15,2013-03-09 05:05:00,
2013-03-09 00:10:00,26.3,22.1,30.43,SE,141,0.0,0.0,84,0.00,,,0.00,Wunderground v.1.15,2013-03-09 05:10:00,
2013-03-09 00:15:00,26.6,22.4,30.42,SE,141,0.0,0.0,84,0.00,,,0.00,Wunderground v.1.15,2013-03-09 05:15:00,
2013-03-09 00:20:00,27.0,22.8,30.42,SE,141,0.0,0.0,84,0.00,,,0.00,Wunderground v.1.15,2013-03-09 05:20:00,
2013-03-09 00:25:00,27.1,22.6,30.42,SE,141,0.0,0.0,83,0.00,,,0.00,Wunderground v.1.15,2013-03-09 05:25:00,
2013-03-09 00:30:00,27.1,22.6,30.42,SE,141,0.0,0.0,83,0.00,,,0.00,Wunderground v.1.15,2013-03-09 05:30:00,
2013-03-09 00:35:00,27.4,22.6,30.41,ESE,113,0.0,0.0,82,0.00,,,0.00,Wunderground v.1.15,2013-03-09 05:35:00,
2013-03-09 00:40:00,27.5,22.7,30.41,ESE,113,0.0,0.0,82,0.00,,,0.00,Wunderground v.1.15,2013-03-09 05:40:00,
2013-03-09 00:45:00,27.5,22.7,30.41,ESE,113,0.0,0.0,82,0.00,,,0.00,Wunderground v.1.15,2013-03-09 05:45:00,
2013-03-09 00:50:00,27.4,22.6,30.41,ESE,113,0.0,0.0,82,0.00,,,0.00,Wunderground v.1.15,2013-03-09 05:50:00,
2013-03-09 00:55:00,27.3,22.5,30.41,ESE,116,0.0,0.0,82,0.00,,,0.00,Wunderground v.1.15,2013-03-09 05:55:00,
2013-03-09 01:00:00,27.6,22.8,30.41,ESE,116,0.0,0.0,82,0.00,,,0.00,Wunderground v.1.15,2013-03-09 06:00:00,
2013-03-09 01:10:00,27.1,22.3,30.41,East,99,0.0,1.0,82,0.00,,,0.00,Wunderground v.1.15,2013-03-09 06:10:00,
2013-03-09 01:15:00,27.5,22.7,30.41,ESE,105,0.0,1.0,82,0.00,,,0.00,Wunderground v.1.15,2013-03-09 06:15:00,
2013-03-09 01:20:00,27.8,22.7,30.41,ESE,109,1.0,1.0,81,0.00,,,0.00,Wunderground v.1.15,2013-03-09 06:20:00,
2013-03-09 01:25:00,27.9,22.8,30.40,ESE,104,1.0,1.0,81,0.00,,,0.00,Wunderground v.1.15,2013-03-09 06:25:00,
2013-03-09 01:35:00,27.9,22.8,30.40,East,100,2.0,2.0,81,0.00,,,0.00,Wunderground v.1.15,2013-03-09 06:35:00,
2013-03-09 01:40:00,27.8,22.7,30.40,ESE,115,2.0,2.0,81,0.00,,,0.00,Wunderground v.1.15,2013-03-09 06:40:00,
2013-03-09 01:45:00,27.7,22.6,30.40,ESE,108,2.0,2.0,81,0.00,,,0.00,Wunderground v.1.15,2013-03-09 06:45:00,
2013-03-09 01:50:00,27.7,22.6,30.40,East,97,2.0,2.0,81,0.00,,,0.00,Wunderground v.1.15,2013-03-09 06:50:00,
2013-03-09 01:55:00,27.7,22.6,30.40,ESE,113,2.0,3.0,81,0.00,,,0.00,Wunderground v.1.15,2013-03-09 06:55:00,
2013-03-09 02:00:00,27.7,22.6,30.40,ESE,103,2.0,2.0,81,0.00,,,0.00,Wunderground v.1.15,2013-03-09 07:00:00,
2013-03-09 02:10:00,27.7,22.6,30.39,ESE,104,2.0,2.0,81,0.00,,,0.00,Wunderground v.1.15,2013-03-09 07:10:00,
2013-03-09 02:15:00,27.8,22.7,30.39,SE,131,2.0,2.0,81,0.00,,,0.00,Wunderground v.1.15,2013-03-09 07:15:00,
2013-03-09 02:20:00,27.7,22.6,30.39,ESE,122,3.0,3.0,81,0.00,,,0.00,Wunderground v.1.15,2013-03-09 07:20:00,
2013-03-09 02:25:00,27.8,22.7,30.39,ESE,108,3.0,3.0,81,0.00,,,0.00,Wunderground v.1.15,2013-03-09 07:25:00,
2013-03-09 02:30:00,27.7,22.9,30.38,ESE,108,2.0,2.0,82,0.00,,,0.00,Wunderground v.1.15,2013-03-09 07:30:00,
2013-03-09 02:40:00,27.7,22.6,30.38,ESE,108,2.0,2.0,81,0.00,,,0.00,Wunderground v.1.15,2013-03-09 07:40:00,
2013-03-09 02:45:00,27.7,22.6,30.38,ESE,105,2.0,2.0,81,0.00,,,0.00,Wunderground v.1.15,2013-03-09 07:45:00,
2013-03-09 02:50:00,27.8,22.7,30.37,ESE,113,2.0,3.0,81,0.00,,,0.00,Wunderground v.1.15,2013-03-09 07:50:00,
2013-03-09 02:55:00,27.7,22.6,30.37,ESE,121,2.0,3.0,81,0.00,,,0.00,Wunderground v.1.15,2013-03-09 07:55:00,
2013-03-09 03:00:00,27.7,22.6,30.37,ESE,114,2.0,3.0,81,0.00,,,0.00,Wunderground v.1.15,2013-03-09 08:00:00,
2013-03-09 03:10:00,27.7,22.6,30.36,ESE,105,2.0,2.0,81,0.00,,,0.00,Wunderground v.1.15,2013-03-09 08:10:00,
2013-03-09 03:15:00,27.7,22.6,30.36,ESE,115,2.0,2.0,81,0.00,,,0.00,Wunderground v.1.15,2013-03-09 08:15:00,
2013-03-09 03:20:00,27.5,22.4,30.36,ESE,113,2.0,2.0,81,0.00,,,0.00,Wunderground v.1.15,2013-03-09 08:20:00,
2013-03-09 03:25:00,27.5,22.4,30.36,ESE,119,2.0,2.0,81,0.00,,,0.00,Wunderground v.1.15,2013-03-09 08:25:00,
2013-03-09 03:30:00,27.4,22.6,30.36,ESE,113,2.0,2.0,82,0.00,,,0.00,Wunderground v.1.15,2013-03-09 08:30:00,
2013-03-09 03:35:00,27.3,22.5,30.36,ESE,102,1.0,2.0,82,0.00,,,0.00,Wunderground v.1.15,2013-03-09 08:35:00,
2013-03-09 03:40:00,27.2,22.4,30.35,ESE,105,2.0,2.0,82,0.00,,,0.00,Wunderground v.1.15,2013-03-09 08:40:00,
2013-03-09 03:45:00,27.1,22.6,30.35,ESE,104,2.0,3.0,83,0.00,,,0.00,Wunderground v.1.15,2013-03-09 08:45:00,
2013-03-09 03:50:00,27.1,22.6,30.35,ESE,115,2.0,2.0,83,0.00,,,0.00,Wunderground v.1.15,2013-03-09 08:50:00,
2013-03-09 03:55:00,27.0,22.5,30.35,ESE,118,2.0,2.0,83,0.00,,,0.00,Wunderground v.1.15,2013-03-09 08:55:00,
2013-03-09 04:00:00,27.1,22.6,30.35,ESE,120,2.0,2.0,83,0.00,,,0.00,Wunderground v.1.15,2013-03-09 09:00:00,
2013-03-09 04:10:00,27.1,22.6,30.35,ESE,121,1.0,1.0,83,0.00,,,0.00,Wunderground v.1.15,2013-03-09 09:10:00,
2013-03-09 04:15:00,27.0,22.5,30.35,ESE,121,1.0,1.0,83,0.00,,,0.00,Wunderground v.1.15,2013-03-09 09:15:00,
2013-03-09 04:20:00,27.1,22.6,30.35,ESE,113,1.0,1.0,83,0.00,,,0.00,Wunderground v.1.15,2013-03-09 09:20:00,
2013-03-09 04:25:00,27.1,22.6,30.34,ESE,113,2.0,2.0,83,0.00,,,0.00,Wunderground v.1.15,2013-03-09 09:25:00,
2013-03-09 04:30:00,27.1,22.6,30.34,ESE,122,2.0,2.0,83,0.00,,,0.00,Wunderground v.1.15,2013-03-09 09:30:00,
2013-03-09 04:35:00,27.1,22.6,30.34,ESE,118,1.0,2.0,83,0.00,,,0.00,Wunderground v.1.15,2013-03-09 09:35:00,
2013-03-09 04:40:00,27.2,22.7,30.34,ESE,116,2.0,2.0,83,0.00,,,0.00,Wunderground v.1.15,2013-03-09 09:40:00,
2013-03-09 04:50:00,27.2,22.7,30.34,ESE,114,2.0,2.0,83,0.00,,,0.00,Wunderground v.1.15,2013-03-09 09:50:00,
2013-03-09 04:55:00,27.2,23.0,30.34,ESE,116,1.0,2.0,84,0.00,,,0.00,Wunderground v.1.15,2013-03-09 09:55:00,
2013-03-09 05:00:00,27.2,23.0,30.34,SE,129,1.0,1.0,84,0.00,,,0.00,Wunderground v.1.15,2013-03-09 10:00:00,
2013-03-09 05:10:00,27.2,23.0,30.34,ESE,105,1.0,2.0,84,0.00,,,0.00,Wunderground v.1.15,2013-03-09 10:10:00,
2013-03-09 05:20:00,27.4,22.9,30.34,ESE,105,2.0,2.0,83,0.00,,,0.00,Wunderground v.1.15,2013-03-09 10:20:00,
2013-03-09 05:25:00,27.4,22.9,30.34,ESE,118,2.0,2.0,83,0.00,,,0.00,Wunderground v.1.15,2013-03-09 10:25:00,
2013-03-09 05:30:00,27.4,23.2,30.34,ESE,121,1.0,1.0,84,0.00,,,0.00,Wunderground v.1.15,2013-03-09 10:30:00,
2013-03-09 05:35:00,27.3,23.1,30.34,ESE,110,1.0,1.0,84,0.00,,,0.00,Wunderground v.1.15,2013-03-09 10:35:00,
2013-03-09 05:40:00,27.4,23.2,30.34,ESE,115,1.0,2.0,84,0.00,,,0.00,Wunderground v.1.15,2013-03-09 10:40:00,
2013-03-09 05:45:00,27.5,23.3,30.34,ESE,115,2.0,2.0,84,0.00,,,0.00,Wunderground v.1.15,2013-03-09 10:45:00,
2013-03-09 05:55:00,27.7,23.2,30.33,East,100,2.0,2.0,83,0.00,,,0.00,Wunderground v.1.15,2013-03-09 10:55:00,
2013-03-09 06:00:00,27.7,23.5,30.33,ESE,106,2.0,2.0,84,0.00,,,0.00,Wunderground v.1.15,2013-03-09 11:00:00,
2013-03-09 06:10:00,27.6,23.4,30.33,SE,127,1.0,1.0,84,0.00,,,0.00,Wunderground v.1.15,2013-03-09 11:10:00,
2013-03-09 06:15:00,27.7,23.8,30.33,ESE,117,1.0,1.0,85,0.00,,,0.00,Wunderground v.1.15,2013-03-09 11:15:00,
2013-03-09 06:25:00,27.7,23.8,30.33,ESE,115,2.0,2.0,85,0.00,,,0.00,Wunderground v.1.15,2013-03-09 11:25:00,
2013-03-09 06:30:00,27.8,23.9,30.33,ESE,105,2.0,3.0,85,0.00,,,0.00,Wunderground v.1.15,2013-03-09 11:30:00,
2013-03-09 06:35:00,27.9,24.0,30.33,ESE,118,2.0,3.0,85,0.00,,,0.00,Wunderground v.1.15,2013-03-09 11:35:00,
2013-03-09 06:40:00,28.0,24.1,30.33,ESE,113,2.0,2.0,85,0.00,,,0.00,Wunderground v.1.15,2013-03-09 11:40:00,
2013-03-09 06:45:00,28.0,24.1,30.33,SE,127,2.0,2.0,85,0.00,,,0.00,Wunderground v.1.15,2013-03-09 11:45:00,
2013-03-09 06:50:00,28.1,24.2,30.32,ESE,110,2.0,2.0,85,0.00,,,0.00,Wunderground v.1.15,2013-03-09 11:50:00,
2013-03-09 07:00:00,28.2,24.3,30.33,East,99,2.0,2.0,85,0.00,,,0.00,Wunderground v.1.15,2013-03-09 12:00:00,
2013-03-09 07:10:00,28.2,24.6,30.33,ESE,104,2.0,2.0,86,0.00,,,0.00,Wunderground v.1.15,2013-03-09 12:10:00,
2013-03-09 07:15:00,28.3,24.6,30.33,ESE,104,2.0,2.0,86,0.00,,,0.00,Wunderground v.1.15,2013-03-09 12:15:00,
2013-03-09 07:20:00,28.4,24.7,30.33,ESE,121,2.0,2.0,86,0.00,,,0.00,Wunderground v.1.15,2013-03-09 12:20:00,
2013-03-09 07:30:00,28.3,24.9,30.33,ESE,121,2.0,3.0,87,0.00,,,0.00,Wunderground v.1.15,2013-03-09 12:30:00,
2013-03-09 07:35:00,28.7,25.3,30.33,ESE,119,3.0,4.0,87,0.00,,,0.00,Wunderground v.1.15,2013-03-09 12:35:00,
2013-03-09 07:40:00,29.3,25.6,30.33,East,99,4.0,4.0,86,0.00,,,0.00,Wunderground v.1.15,2013-03-09 12:40:00,
2013-03-09 07:45:00,29.9,25.9,30.33,ESE,109,4.0,4.0,85,0.00,,,0.00,Wunderground v.1.15,2013-03-09 12:45:00,
2013-03-09 07:50:00,30.4,26.1,30.33,ESE,103,4.0,6.0,84,0.00,,,0.00,Wunderground v.1.15,2013-03-09 12:50:00,
2013-03-09 07:55:00,30.8,26.2,30.33,ESE,110,5.0,6.0,83,0.00,,,0.00,Wunderground v.1.15,2013-03-09 12:55:00,
2013-03-09 08:00:00,31.2,26.3,30.33,SSE,148,4.0,4.0,82,0.00,,,0.00,Wunderground v.1.15,2013-03-09 13:00:00,
2013-03-09 08:10:00,31.5,26.0,30.33,ESE,121,4.0,4.0,80,0.00,,,0.00,Wunderground v.1.15,2013-03-09 13:10:00,
2013-03-09 08:15:00,31.6,26.1,30.33,ESE,104,5.0,5.0,80,0.00,,,0.00,Wunderground v.1.15,2013-03-09 13:15:00,
2013-03-09 08:20:00,31.8,26.3,30.33,ESE,109,5.0,6.0,80,0.00,,,0.00,Wunderground v.1.15,2013-03-09 13:20:00,
2013-03-09 08:25:00,31.8,26.3,30.33,ESE,113,6.0,6.0,80,0.00,,,0.00,Wunderground v.1.15,2013-03-09 13:25:00,
2013-03-09 08:35:00,32.0,26.5,30.33,South,191,6.0,6.0,80,0.00,,,0.00,Wunderground v.1.15,2013-03-09 13:35:00,
2013-03-09 08:40:00,32.1,26.6,30.33,SSE,155,5.0,5.0,80,0.00,,,0.00,Wunderground v.1.15,2013-03-09 13:40:00,
2013-03-09 08:45:00,32.3,26.8,30.33,ESE,115,4.0,5.0,80,0.00,,,0.00,Wunderground v.1.15,2013-03-09 13:45:00,
2013-03-09 08:50:00,32.4,26.9,30.33,SSE,165,4.0,4.0,80,0.00,,,0.00,Wunderground v.1.15,2013-03-09 13:50:00,
2013-03-09 08:55:00,32.5,27.3,30.33,SE,145,4.0,6.0,81,0.00,,,0.00,Wunderground v.1.15,2013-03-09 13:55:00,
2013-03-09 09:00:00,32.5,27.3,30.33,SE,125,4.0,6.0,81,0.00,,,0.00,Wunderground v.1.15,2013-03-09 14:00:00,
2013-03-09 09:10:00,32.8,27.6,30.33,SSE,148,4.0,7.0,81,0.00,,,0.00,Wunderground v.1.15,2013-03-09 14:10:00,
2013-03-09 09:15:00,33.0,27.8,30.33,SSE,166,5.0,7.0,81,0.00,,,0.00,Wunderground v.1.15,2013-03-09 14:15:00,
2013-03-09 09:20:00,33.1,27.6,30.32,South,188,5.0,6.0,80,0.00,,,0.00,Wunderground v.1.15,2013-03-09 14:20:00,
2013-03-09 09:25:00,33.1,27.6,30.32,SE,145,5.0,6.0,80,0.00,,,0.00,Wunderground v.1.15,2013-03-09 14:25:00,
2013-03-09 09:30:00,33.2,28.0,30.32,SE,134,5.0,6.0,81,0.00,,,0.00,Wunderground v.1.15,2013-03-09 14:30:00,
2013-03-09 09:40:00,33.6,28.4,30.32,South,173,4.0,4.0,81,0.00,,,0.00,Wunderground v.1.15,2013-03-09 14:40:00,
2013-03-09 09:45:00,33.8,28.3,30.33,South,176,5.0,5.0,80,0.00,,,0.00,Wunderground v.1.15,2013-03-09 14:45:00,
2013-03-09 09:50:00,34.1,28.6,30.32,SSW,200,5.0,5.0,80,0.00,,,0.00,Wunderground v.1.15,2013-03-09 14:50:00,
2013-03-09 09:55:00,34.3,28.5,30.32,SSE,153,4.0,5.0,79,0.00,,,0.00,Wunderground v.1.15,2013-03-09 14:55:00,
2013-03-09 10:00:00,34.4,28.6,30.32,South,181,4.0,4.0,79,0.00,,,0.00,Wunderground v.1.15,2013-03-09 15:00:00,
2013-03-09 10:10:00,34.7,28.5,30.32,SSE,150,4.0,5.0,78,0.00,,,0.00,Wunderground v.1.15,2013-03-09 15:10:00,
2013-03-09 10:15:00,34.9,29.0,30.32,SE,138,4.0,5.0,79,0.00,,,0.00,Wunderground v.1.15,2013-03-09 15:15:00,
2013-03-09 10:20:00,35.1,29.2,30.32,SSE,166,3.0,4.0,79,0.00,,,0.00,Wunderground v.1.15,2013-03-09 15:20:00,
2013-03-09 10:25:00,35.0,28.8,30.32,SSE,149,3.0,4.0,78,0.00,,,0.00,Wunderground v.1.15,2013-03-09 15:25:00,
2013-03-09 10:30:00,35.0,28.8,30.32,South,180,4.0,4.0,78,0.00,,,0.00,Wunderground v.1.15,2013-03-09 15:30:00,
2013-03-09 10:35:00,35.0,28.8,30.31,ESE,115,4.0,4.0,78,0.00,,,0.00,Wunderground v.1.15,2013-03-09 15:35:00,
2013-03-09 10:45:00,35.1,28.9,30.31,SE,143,4.0,4.0,78,0.00,,,0.00,Wunderground v.1.15,2013-03-09 15:45:00,
2013-03-09 10:50:00,35.3,29.1,30.31,SE,146,4.0,4.0,78,0.00,,,0.00,Wunderground v.1.15,2013-03-09 15:50:00,
2013-03-09 10:55:00,35.5,29.6,30.31,SE,139,4.0,4.0,79,0.00,,,0.00,Wunderground v.1.15,2013-03-09 15:55:00,
2013-03-09 11:00:00,35.5,29.3,30.31,SSE,160,3.0,3.0,78,0.00,,,0.00,Wunderground v.1.15,2013-03-09 16:00:00,
2013-03-09 11:10:00,35.3,29.1,30.30,SE,136,5.0,5.0,78,0.00,,,0.00,Wunderground v.1.15,2013-03-09 16:10:00,
2013-03-09 11:15:00,35.3,29.1,30.30,SE,124,5.0,5.0,78,0.00,,,0.00,Wunderground v.1.15,2013-03-09 16:15:00,
2013-03-09 11:20:00,35.2,29.0,30.30,ESE,118,5.0,5.0,78,0.00,,,0.00,Wunderground v.1.15,2013-03-09 16:20:00,
2013-03-09 11:25:00,35.3,29.1,30.30,SSE,163,5.0,5.0,78,0.00,,,0.00,Wunderground v.1.15,2013-03-09 16:25:00,
2013-03-09 11:30:00,35.4,29.2,30.29,ESE,104,5.0,6.0,78,0.00,,,0.00,Wunderground v.1.15,2013-03-09 16:30:00,
2013-03-09 11:35:00,35.5,29.0,30.29,SE,125,5.0,7.0,77,0.00,,,0.00,Wunderground v.1.15,2013-03-09 16:35:00,
2013-03-09 11:40:00,35.6,29.1,30.29,ESE,117,5.0,5.0,77,0.00,,,0.00,Wunderground v.1.15,2013-03-09 16:40:00,
2013-03-09 11:45:00,35.8,29.0,30.29,SSE,166,5.0,5.0,76,0.00,,,0.00,Wunderground v.1.15,2013-03-09 16:45:00,
2013-03-09 11:50:00,36.0,29.5,30.29,SE,141,4.0,4.0,77,0.00,,,0.00,Wunderground v.1.15,2013-03-09 16:50:00,
2013-03-09 11:55:00,36.1,29.6,30.29,SE,131,4.0,7.0,77,0.00,,,0.00,Wunderground v.1.15,2013-03-09 16:55:00,
2013-03-09 12:00:00,36.4,29.9,30.29,SE,131,5.0,6.0,77,0.00,,,0.00,Wunderground v.1.15,2013-03-09 17:00:00,
2013-03-09 12:10:00,37.3,30.4,30.28,South,172,4.0,10.0,76,0.00,,,0.00,Wunderground v.1.15,2013-03-09 17:10:00,
2013-03-09 12:20:00,37.8,30.3,30.27,SSE,158,7.0,7.0,74,0.00,,,0.00,Wunderground v.1.15,2013-03-09 17:20:00,
2013-03-09 12:25:00,38.3,30.4,30.26,SSW,205,6.0,7.0,73,0.00,,,0.00,Wunderground v.1.15,2013-03-09 17:25:00,
2013-03-09 12:30:00,38.7,30.4,30.26,SE,134,6.0,6.0,72,0.00,,,0.00,Wunderground v.1.15,2013-03-09 17:30:00,
2013-03-09 12:35:00,38.9,30.6,30.25,South,176,7.0,7.0,72,0.00,,,0.00,Wunderground v.1.15,2013-03-09 17:35:00,
2013-03-09 12:40:00,39.5,30.9,30.25,SE,139,7.0,7.0,71,0.00,,,0.00,Wunderground v.1.15,2013-03-09 17:40:00,
2013-03-09 12:50:00,40.1,31.1,30.25,ESE,115,7.0,8.0,70,0.00,,,0.00,Wunderground v.1.15,2013-03-09 17:50:00,
2013-03-09 12:55:00,39.8,30.5,30.23,ESE,118,8.0,8.0,69,0.00,,,0.00,Wunderground v.1.15,2013-03-09 17:55:00,
2013-03-09 13:00:00,39.6,30.6,30.22,SSE,158,9.0,9.0,70,0.00,,,0.00,Wunderground v.1.15,2013-03-09 18:00:00,
2013-03-09 13:10:00,40.1,31.1,30.21,SE,134,9.0,9.0,70,0.00,,,0.00,Wunderground v.1.15,2013-03-09 18:10:00,
2013-03-09 13:15:00,40.3,30.9,30.21,ESE,122,10.0,10.0,69,0.00,,,0.00,Wunderground v.1.15,2013-03-09 18:15:00,
2013-03-09 13:25:00,41.1,31.0,30.20,SE,134,8.0,10.0,67,0.00,,,0.00,Wunderground v.1.15,2013-03-09 18:25:00,
2013-03-09 13:30:00,41.1,31.0,30.20,SSE,152,9.0,9.0,67,0.00,,,0.00,Wunderground v.1.15,2013-03-09 18:30:00,
2013-03-09 13:35:00,41.3,31.2,30.19,SE,141,8.0,10.0,67,0.00,,,0.00,Wunderground v.1.15,2013-03-09 18:35:00,
2013-03-09 13:40:00,41.2,31.8,30.19,South,179,8.0,8.0,69,0.00,,,0.00,Wunderground v.1.15,2013-03-09 18:40:00,
2013-03-09 13:45:00,41.5,31.0,30.18,SSE,155,8.0,8.0,66,0.00,,,0.00,Wunderground v.1.15,2013-03-09 18:45:00,
2013-03-09 13:55:00,41.9,32.1,30.18,SSW,197,7.0,9.0,68,0.00,,,0.00,Wunderground v.1.15,2013-03-09 18:55:00,
2013-03-09 14:00:00,42.1,31.6,30.17,SE,140,7.0,7.0,66,0.00,,,0.00,Wunderground v.1.15,2013-03-09 19:00:00,
2013-03-09 14:10:00,42.5,31.9,30.17,SE,136,7.0,7.0,66,0.00,,,0.00,Wunderground v.1.15,2013-03-09 19:10:00,
2013-03-09 14:15:00,42.7,32.1,30.17,SE,130,7.0,10.0,66,0.00,,,0.00,Wunderground v.1.15,2013-03-09 19:15:00,
2013-03-09 14:20:00,42.8,31.5,30.17,SSE,150,7.0,9.0,64,0.00,,,0.00,Wunderground v.1.15,2013-03-09 19:20:00,
2013-03-09 14:30:00,43.1,31.0,30.16,SSE,154,8.0,13.0,62,0.00,,,0.00,Wunderground v.1.15,2013-03-09 19:30:00,
2013-03-09 14:35:00,43.1,31.7,30.16,ESE,118,9.0,13.0,64,0.00,,,0.00,Wunderground v.1.15,2013-03-09 19:35:00,
2013-03-09 14:40:00,43.3,31.9,30.16,South,186,7.0,8.0,64,0.00,,,0.00,Wunderground v.1.15,2013-03-09 19:40:00,
2013-03-09 14:45:00,42.8,31.1,30.15,ESE,122,7.0,10.0,63,0.00,,,0.00,Wunderground v.1.15,2013-03-09 19:45:00,
2013-03-09 14:50:00,42.5,31.2,30.15,ESE,121,9.0,9.0,64,0.00,,,0.00,Wunderground v.1.15,2013-03-09 19:50:00,
2013-03-09 15:00:00,42.9,31.9,30.15,SSE,160,8.0,8.0,65,0.00,,,0.00,Wunderground v.1.15,2013-03-09 20:00:00,
2013-03-09 15:10:00,42.5,31.6,30.15,South,169,8.0,8.0,65,0.00,,,0.00,Wunderground v.1.15,2013-03-09 20:10:00,
2013-03-09 15:15:00,42.2,31.3,30.14,ESE,121,8.0,9.0,65,0.00,,,0.00,Wunderground v.1.15,2013-03-09 20:15:00,
2013-03-09 15:20:00,42.2,31.3,30.14,South,176,8.0,8.0,65,0.00,,,0.00,Wunderground v.1.15,2013-03-09 20:20:00,
2013-03-09 15:25:00,42.2,30.9,30.14,South,173,7.0,9.0,64,0.00,,,0.00,Wunderground v.1.15,2013-03-09 20:25:00,
2013-03-09 15:30:00,42.2,31.3,30.14,SSE,168,7.0,7.0,65,0.00,,,0.00,Wunderground v.1.15,2013-03-09 20:30:00,
2013-03-09 15:35:00,42.3,31.7,30.14,SSE,148,6.0,7.0,66,0.00,,,0.00,Wunderground v.1.15,2013-03-09 20:35:00,
2013-03-09 15:40:00,42.4,32.6,30.14,SE,139,5.0,5.0,68,0.00,,,0.00,Wunderground v.1.15,2013-03-09 20:40:00,
2013-03-09 15:45:00,42.5,32.3,30.13,SSW,210,4.0,5.0,67,0.00,,,0.00,Wunderground v.1.15,2013-03-09 20:45:00,
2013-03-09 15:50:00,42.3,31.7,30.13,SSE,152,4.0,10.0,66,0.00,,,0.00,Wunderground v.1.15,2013-03-09 20:50:00,
2013-03-09 15:55:00,42.1,31.2,30.12,ESE,115,6.0,10.0,65,0.00,,,0.00,Wunderground v.1.15,2013-03-09 20:55:00,
2013-03-09 16:00:00,41.9,32.1,30.12,SSE,157,6.0,8.0,68,0.00,,,0.00,Wunderground v.1.15,2013-03-09 21:00:00,
2013-03-09 16:10:00,41.6,31.8,30.12,SSE,162,6.0,6.0,68,0.00,,,0.00,Wunderground v.1.15,2013-03-09 21:10:00,
2013-03-09 16:15:00,41.3,31.2,30.12,SSE,167,6.0,7.0,67,0.00,,,0.00,Wunderground v.1.15,2013-03-09 21:15:00,
2013-03-09 16:20:00,41.3,31.2,30.11,SE,142,6.0,6.0,67,0.00,,,0.00,Wunderground v.1.15,2013-03-09 21:20:00,
2013-03-09 16:25:00,41.2,31.8,30.11,SSE,149,6.0,8.0,69,0.00,,,0.00,Wunderground v.1.15,2013-03-09 21:25:00,
2013-03-09 16:30:00,41.1,31.0,30.10,ESE,121,6.0,11.0,67,0.00,,,0.00,Wunderground v.1.15,2013-03-09 21:30:00,
2013-03-09 16:40:00,40.8,30.7,30.10,ESE,121,7.0,7.0,67,0.00,,,0.00,Wunderground v.1.15,2013-03-09 21:40:00,
2013-03-09 16:45:00,40.6,30.9,30.10,SE,145,6.0,7.0,68,0.00,,,0.00,Wunderground v.1.15,2013-03-09 21:45:00,
2013-03-09 16:50:00,40.4,31.0,30.10,South,169,5.0,6.0,69,0.00,,,0.00,Wunderground v.1.15,2013-03-09 21:50:00,
2013-03-09 16:55:00,40.3,31.3,30.10,South,174,5.0,8.0,70,0.00,,,0.00,Wunderground v.1.15,2013-03-09 21:55:00,
2013-03-09 17:00:00,40.1,30.7,30.11,South,187,6.0,6.0,69,0.00,,,0.00,Wunderground v.1.15,2013-03-09 22:00:00,
2013-03-09 17:10:00,39.9,30.9,30.11,SSE,166,8.0,10.0,70,0.00,,,0.00,Wunderground v.1.15,2013-03-09 22:10:00,
2013-03-09 17:15:00,39.7,31.1,30.10,South,176,6.0,10.0,71,0.00,,,0.00,Wunderground v.1.15,2013-03-09 22:15:00,
2013-03-09 17:20:00,39.5,31.2,30.10,SE,133,4.0,4.0,72,0.00,,,0.00,Wunderground v.1.15,2013-03-09 22:20:00,
2013-03-09 17:25:00,39.3,31.4,30.09,SE,139,5.0,5.0,73,0.00,,,0.00,Wunderground v.1.15,2013-03-09 22:25:00,
2013-03-09 17:30:00,39.1,31.2,30.09,SE,127,5.0,10.0,73,0.00,,,0.00,Wunderground v.1.15,2013-03-09 22:30:00,
2013-03-09 17:35:00,38.9,31.3,30.09,South,172,6.0,11.0,74,0.00,,,0.00,Wunderground v.1.15,2013-03-09 22:35:00,
2013-03-09 17:40:00,38.8,31.2,30.08,ESE,113,8.0,8.0,74,0.00,,,0.00,Wunderground v.1.15,2013-03-09 22:40:00,
2013-03-09 17:45:00,38.7,31.5,30.09,SE,141,7.0,8.0,75,0.00,,,0.00,Wunderground v.1.15,2013-03-09 22:45:00,
2013-03-09 17:50:00,38.6,31.4,30.08,South,174,6.0,6.0,75,0.00,,,0.00,Wunderground v.1.15,2013-03-09 22:50:00,
2013-03-09 17:55:00,38.5,31.3,30.08,SSE,163,6.0,6.0,75,0.00,,,0.00,Wunderground v.1.15,2013-03-09 22:55:00,
2013-03-09 18:00:00,38.5,31.3,30.08,SE,145,6.0,6.0,75,0.00,,,0.00,Wunderground v.1.15,2013-03-09 23:00:00,
2013-03-09 18:10:00,38.4,31.2,30.08,South,169,6.0,6.0,75,0.00,,,0.00,Wunderground v.1.15,2013-03-09 23:10:00,
2013-03-09 18:15:00,38.2,31.3,30.08,SSE,158,5.0,6.0,76,0.00,,,0.00,Wunderground v.1.15,2013-03-09 23:15:00,
2013-03-09 18:20:00,38.2,31.3,30.08,South,184,6.0,6.0,76,0.00,,,0.00,Wunderground v.1.15,2013-03-09 23:20:00,
2013-03-09 18:25:00,38.1,31.2,30.08,SSE,166,6.0,6.0,76,0.00,,,0.00,Wunderground v.1.15,2013-03-09 23:25:00,
2013-03-09 18:30:00,38.1,31.2,30.09,SSE,166,5.0,5.0,76,0.00,,,0.00,Wunderground v.1.15,2013-03-09 23:30:00,
2013-03-09 18:35:00,38.1,31.2,30.09,South,176,4.0,5.0,76,0.00,,,0.00,Wunderground v.1.15,2013-03-09 23:35:00,
2013-03-09 18:45:00,38.0,31.4,30.08,SSE,165,4.0,5.0,77,0.00,,,0.00,Wunderground v.1.15,2013-03-09 23:45:00,
2013-03-09 18:50:00,37.9,31.3,30.08,SE,127,4.0,5.0,77,0.00,,,0.00,Wunderground v.1.15,2013-03-09 23:50:00,
2013-03-09 18:55:00,37.9,31.7,30.08,SE,128,4.0,5.0,78,0.00,,,0.00,Wunderground v.1.15,2013-03-09 23:55:00,
2013-03-09 19:00:00,37.8,31.6,30.07,SE,132,4.0,5.0,78,0.00,,,0.00,Wunderground v.1.15,2013-03-10 00:00:00,
2013-03-09 19:10:00,37.9,31.7,30.07,SSE,159,4.0,4.0,78,0.00,,,0.00,Wunderground v.1.15,2013-03-10 00:10:00,
2013-03-09 19:15:00,37.8,31.9,30.07,SE,138,3.0,4.0,79,0.00,,,0.00,Wunderground v.1.15,2013-03-10 00:15:00,
2013-03-09 19:20:00,37.7,31.8,30.06,South,179,4.0,5.0,79,0.00,,,0.00,Wunderground v.1.15,2013-03-10 00:20:00,
2013-03-09 19:25:00,37.9,32.0,30.06,SSE,148,4.0,5.0,79,0.00,,,0.00,Wunderground v.1.15,2013-03-10 00:25:00,
2013-03-09 19:30:00,38.0,32.1,30.06,SE,128,4.0,5.0,79,0.00,,,0.00,Wunderground v.1.15,2013-03-10 00:30:00,
2013-03-09 19:35:00,38.0,32.1,30.06,South,179,4.0,5.0,79,0.00,,,0.00,Wunderground v.1.15,2013-03-10 00:35:00,
2013-03-09 19:45:00,38.1,32.2,30.06,South,176,5.0,5.0,79,0.00,,,0.00,Wunderground v.1.15,2013-03-10 00:45:00,
2013-03-09 19:50:00,38.1,32.2,30.06,SSW,200,4.0,5.0,79,0.00,,,0.00,Wunderground v.1.15,2013-03-10 00:50:00,
2013-03-09 19:55:00,38.1,32.2,30.05,SE,128,4.0,6.0,79,0.00,,,0.00,Wunderground v.1.15,2013-03-10 00:55:00,
2013-03-09 20:00:00,38.1,32.2,30.06,South,172,5.0,5.0,79,0.00,,,0.00,Wunderground v.1.15,2013-03-10 01:00:00,
2013-03-09 20:10:00,38.0,32.1,30.06,SE,128,4.0,4.0,79,0.00,,,0.00,Wunderground v.1.15,2013-03-10 01:10:00,
2013-03-09 20:15:00,37.9,32.3,30.06,SE,139,3.0,5.0,80,0.00,,,0.00,Wunderground v.1.15,2013-03-10 01:15:00,
2013-03-09 20:20:00,37.8,32.2,30.05,SE,138,4.0,4.0,80,0.00,,,0.00,Wunderground v.1.15,2013-03-10 01:20:00,
2013-03-09 20:25:00,37.7,32.1,30.05,SE,134,4.0,4.0,80,0.00,,,0.00,Wunderground v.1.15,2013-03-10 01:25:00,
2013-03-09 20:30:00,37.6,32.3,30.05,South,173,4.0,4.0,81,0.00,,,0.00,Wunderground v.1.15,2013-03-10 01:30:00,
2013-03-09 20:35:00,37.6,32.3,30.05,SE,135,4.0,4.0,81,0.00,,,0.00,Wunderground v.1.15,2013-03-10 01:35:00,
2013-03-09 20:40:00,37.6,32.3,30.04,SE,131,4.0,4.0,81,0.00,,,0.00,Wunderground v.1.15,2013-03-10 01:40:00,
2013-03-09 20:50:00,37.8,32.5,30.04,SE,135,4.0,4.0,81,0.00,,,0.00,Wunderground v.1.15,2013-03-10 01:50:00,
2013-03-09 20:55:00,37.8,32.5,30.04,SSE,153,3.0,4.0,81,0.00,,,0.00,Wunderground v.1.15,2013-03-10 01:55:00,
2013-03-09 21:00:00,37.8,32.8,30.03,ESE,118,4.0,4.0,82,0.00,,,0.00,Wunderground v.1.15,2013-03-10 02:00:00,
2013-03-09 21:10:00,38.0,33.0,30.02,SE,127,5.0,6.0,82,0.00,,,0.00,Wunderground v.1.15,2013-03-10 02:10:00,
2013-03-09 21:20:00,38.3,33.0,30.02,SE,142,5.0,5.0,81,0.00,,,0.00,Wunderground v.1.15,2013-03-10 02:20:00,
2013-03-09 21:25:00,38.4,33.1,30.02,SE,125,4.0,5.0,81,0.00,,,0.00,Wunderground v.1.15,2013-03-10 02:25:00,
2013-03-09 21:30:00,38.3,33.0,30.02,SE,133,4.0,5.0,81,0.00,,,0.00,Wunderground v.1.15,2013-03-10 02:30:00,
2013-03-09 21:35:00,38.3,33.0,30.01,SE,136,4.0,5.0,81,0.00,,,0.00,Wunderground v.1.15,2013-03-10 02:35:00,
2013-03-09 21:40:00,38.4,33.1,30.01,SE,141,4.0,6.0,81,0.00,,,0.00,Wunderground v.1.15,2013-03-10 02:40:00,
2013-03-09 21:45:00,38.8,33.5,30.01,South,187,5.0,6.0,81,0.00,,,0.00,Wunderground v.1.15,2013-03-10 02:45:00,
2013-03-09 21:50:00,38.8,33.5,30.01,South,186,4.0,4.0,81,0.00,,,0.00,Wunderground v.1.15,2013-03-10 02:50:00,
2013-03-09 22:00:00,38.8,33.5,30.01,South,191,3.0,3.0,81,0.00,,,0.00,Wunderground v.1.15,2013-03-10 03:00:00,
2013-03-09 22:10:00,38.5,33.5,30.01,ESE,120,3.0,3.0,82,0.00,,,0.00,Wunderground v.1.15,2013-03-10 03:10:00,
2013-03-09 22:15:00,38.5,33.5,30.01,SSE,148,3.0,3.0,82,0.00,,,0.00,Wunderground v.1.15,2013-03-10 03:15:00,
2013-03-09 22:25:00,38.5,33.5,30.01,SE,131,2.0,4.0,82,0.00,,,0.00,Wunderground v.1.15,2013-03-10 03:25:00,
2013-03-09 22:30:00,38.6,33.6,30.01,SE,133,2.0,2.0,82,0.00,,,0.00,Wunderground v.1.15,2013-03-10 03:30:00,
2013-03-09 22:35:00,38.6,33.6,30.01,SE,128,2.0,2.0,82,0.00,,,0.00,Wunderground v.1.15,2013-03-10 03:35:00,
2013-03-09 22:40:00,38.7,33.7,30.01,SE,129,2.0,2.0,82,0.00,,,0.00,Wunderground v.1.15,2013-03-10 03:40:00,
2013-03-09 22:45:00,38.8,33.5,30.01,SE,145,2.0,2.0,81,0.00,,,0.00,Wunderground v.1.15,2013-03-10 03:45:00,
2013-03-09 22:50:00,38.8,33.5,30.00,ESE,115,1.0,1.0,81,0.00,,,0.00,Wunderground v.1.15,2013-03-10 03:50:00,
2013-03-09 22:55:00,38.8,33.5,30.00,SE,136,1.0,2.0,81,0.00,,,0.00,Wunderground v.1.15,2013-03-10 03:55:00,
2013-03-09 23:00:00,38.8,33.5,30.00,ESE,118,2.0,2.0,81,0.00,,,0.00,Wunderground v.1.15,2013-03-10 04:00:00,
2013-03-09 23:10:00,38.7,33.4,30.00,SE,134,1.0,1.0,81,0.00,,,0.00,Wunderground v.1.15,2013-03-10 04:10:00,
2013-03-09 23:15:00,38.7,33.4,30.00,SSE,163,0.0,1.0,81,0.00,,,0.00,Wunderground v.1.15,2013-03-10 04:15:00,
2013-03-09 23:20:00,38.8,33.5,30.00,SSE,162,0.0,0.0,81,0.00,,,0.00,Wunderground v.1.15,2013-03-10 04:20:00,
2013-03-09 23:30:00,38.9,33.6,30.00,SE,134,0.0,1.0,81,0.00,,,0.00,Wunderground v.1.15,2013-03-10 04:30:00,
2013-03-09 23:35:00,39.1,33.5,29.99,ESE,113,1.0,2.0,80,0.00,,,0.00,Wunderground v.1.15,2013-03-10 04:35:00,
2013-03-09 23:40:00,39.3,33.6,30.00,ENE,63,1.0,1.0,80,0.00,,,0.00,Wunderground v.1.15,2013-03-10 04:40:00,
2013-03-09 23:45:00,39.5,33.5,29.99,ESE,113,1.0,2.0,79,0.00,,,0.00,Wunderground v.1.15,2013-03-10 04:45:00,
2013-03-09 23:50:00,39.3,33.3,29.99,East,96,2.0,3.0,79,0.00,,,0.00,Wunderground v.1.15,2013-03-10 04:50:00,